sensor_id;sensor_type;location;lat;lon;timestamp;pressure;altitude;pressure_sealevel;temperature;humidity
57114;BME280;42994;51.606;9.988;2023-04-12T00:00:40;98501.25;;;2.79;100.00
57114;BME280;42994;51.606;9.988;2023-04-12T00:03:09;98486.22;;;2.62;100.00
57114;BME280;42994;51.606;9.988;2023-04-12T00:05:36;98490.84;;;2.60;100.00
57114;BME280;42994;51.606;9.988;2023-04-12T00:08:02;98488.25;;;2.68;100.00
57114;BME280;42994;51.606;9.988;2023-04-12T00:10:30;98491.75;;;2.68;100.00
57114;BME280;42994;51.606;9.988;2023-04-12T00:12:58;98487.06;;;2.62;100.00
57114;BME280;42994;51.606;9.988;2023-04-12T00:15:26;98483.06;;;2.58;100.00
57114;BME280;42994;51.606;9.988;2023-04-12T00:17:53;98482.25;;;2.58;100.00
57114;BME280;42994;51.606;9.988;2023-04-12T00:20:19;98471.66;;;2.58;100.00
57114;BME280;42994;51.606;9.988;2023-04-12T00:22:46;98467.50;;;2.37;100.00
57114;BME280;42994;51.606;9.988;2023-04-12T00:25:13;98455.44;;;2.35;100.00
57114;BME280;42994;51.606;9.988;2023-04-12T00:27:39;98456.63;;;2.40;100.00
57114;BME280;42994;51.606;9.988;2023-04-12T00:30:08;98443.91;;;2.62;100.00
57114;BME280;42994;51.606;9.988;2023-04-12T00:32:35;98438.53;;;2.54;100.00
57114;BME280;42994;51.606;9.988;2023-04-12T00:35:01;98431.13;;;2.57;100.00
57114;BME280;42994;51.606;9.988;2023-04-12T00:37:28;98426.81;;;2.56;100.00
57114;BME280;42994;51.606;9.988;2023-04-12T00:39:55;98426.16;;;2.54;100.00
57114;BME280;42994;51.606;9.988;2023-04-12T00:42:23;98419.41;;;2.60;100.00
57114;BME280;42994;51.606;9.988;2023-04-12T00:44:50;98417.06;;;2.57;100.00
57114;BME280;42994;51.606;9.988;2023-04-12T00:47:18;98408.09;;;2.49;100.00
57114;BME280;42994;51.606;9.988;2023-04-12T00:49:44;98414.00;;;2.43;100.00
57114;BME280;42994;51.606;9.988;2023-04-12T00:52:12;98406.25;;;2.50;100.00
57114;BME280;42994;51.606;9.988;2023-04-12T00:54:41;98395.94;;;2.39;100.00
57114;BME280;42994;51.606;9.988;2023-04-12T00:57:09;98397.19;;;2.26;100.00
57114;BME280;42994;51.606;9.988;2023-04-12T00:59:36;98395.41;;;2.35;100.00
57114;BME280;42994;51.606;9.988;2023-04-12T01:02:03;98394.44;;;2.36;100.00
57114;BME280;42994;51.606;9.988;2023-04-12T01:04:31;98382.78;;;2.47;100.00
57114;BME280;42994;51.606;9.988;2023-04-12T01:07:07;98384.25;;;2.41;100.00
57114;BME280;42994;51.606;9.988;2023-04-12T01:09:49;98381.78;;;2.48;100.00
57114;BME280;42994;51.606;9.988;2023-04-12T01:12:27;98366.13;;;2.55;100.00
57114;BME280;42994;51.606;9.988;2023-04-12T01:15:01;98381.38;;;2.35;100.00
57114;BME280;42994;51.606;9.988;2023-04-12T01:17:31;98375.81;;;2.46;100.00
57114;BME280;42994;51.606;9.988;2023-04-12T01:20:06;98369.50;;;2.39;100.00
57114;BME280;42994;51.606;9.988;2023-04-12T01:22:57;98369.31;;;2.32;100.00
57114;BME280;42994;51.606;9.988;2023-04-12T01:25:38;98367.34;;;2.16;100.00
57114;BME280;42994;51.606;9.988;2023-04-12T01:28:08;98363.34;;;2.30;100.00
57114;BME280;42994;51.606;9.988;2023-04-12T01:30:38;98352.44;;;2.33;100.00
57114;BME280;42994;51.606;9.988;2023-04-12T01:33:06;98346.19;;;2.42;100.00
57114;BME280;42994;51.606;9.988;2023-04-12T01:35:36;98345.59;;;2.48;100.00
57114;BME280;42994;51.606;9.988;2023-04-12T01:38:04;98341.66;;;2.53;100.00
57114;BME280;42994;51.606;9.988;2023-04-12T01:40:32;98327.53;;;2.44;100.00
57114;BME280;42994;51.606;9.988;2023-04-12T01:43:07;98324.00;;;2.35;100.00
57114;BME280;42994;51.606;9.988;2023-04-12T01:45:34;98318.03;;;2.33;100.00
57114;BME280;42994;51.606;9.988;2023-04-12T01:48:03;98320.41;;;2.10;100.00
57114;BME280;42994;51.606;9.988;2023-04-12T01:50:38;98318.09;;;2.15;100.00
57114;BME280;42994;51.606;9.988;2023-04-12T01:53:10;98313.13;;;2.12;100.00
57114;BME280;42994;51.606;9.988;2023-04-12T01:55:40;98317.22;;;2.06;100.00
57114;BME280;42994;51.606;9.988;2023-04-12T01:58:13;98316.31;;;2.16;100.00
57114;BME280;42994;51.606;9.988;2023-04-12T02:00:43;98305.34;;;2.37;100.00
57114;BME280;42994;51.606;9.988;2023-04-12T02:03:10;98292.78;;;2.39;100.00
57114;BME280;42994;51.606;9.988;2023-04-12T02:05:38;98292.16;;;2.19;100.00
57114;BME280;42994;51.606;9.988;2023-04-12T02:08:05;98280.41;;;2.13;100.00
57114;BME280;42994;51.606;9.988;2023-04-12T02:10:32;98278.94;;;2.19;100.00
57114;BME280;42994;51.606;9.988;2023-04-12T02:13:01;98257.66;;;2.20;100.00
57114;BME280;42994;51.606;9.988;2023-04-12T02:15:30;98255.09;;;2.37;100.00
57114;BME280;42994;51.606;9.988;2023-04-12T02:17:58;98253.91;;;2.31;100.00
57114;BME280;42994;51.606;9.988;2023-04-12T02:20:25;98246.19;;;2.38;100.00
57114;BME280;42994;51.606;9.988;2023-04-12T02:22:52;98246.34;;;2.36;100.00
57114;BME280;42994;51.606;9.988;2023-04-12T02:25:19;98239.66;;;2.24;100.00
57114;BME280;42994;51.606;9.988;2023-04-12T02:27:46;98242.66;;;2.29;100.00
57114;BME280;42994;51.606;9.988;2023-04-12T02:30:14;98232.38;;;2.18;100.00
57114;BME280;42994;51.606;9.988;2023-04-12T02:32:45;98221.94;;;2.16;100.00
57114;BME280;42994;51.606;9.988;2023-04-12T02:35:19;98212.84;;;2.19;100.00
57114;BME280;42994;51.606;9.988;2023-04-12T02:37:52;98220.28;;;2.15;100.00
57114;BME280;42994;51.606;9.988;2023-04-12T02:40:21;98209.53;;;2.17;100.00
57114;BME280;42994;51.606;9.988;2023-04-12T02:42:48;98205.63;;;2.29;100.00
57114;BME280;42994;51.606;9.988;2023-04-12T02:45:14;98195.34;;;2.18;100.00
57114;BME280;42994;51.606;9.988;2023-04-12T02:47:42;98192.34;;;2.13;100.00
57114;BME280;42994;51.606;9.988;2023-04-12T02:50:11;98184.06;;;2.07;100.00
57114;BME280;42994;51.606;9.988;2023-04-12T02:52:57;98171.19;;;2.13;100.00
57114;BME280;42994;51.606;9.988;2023-04-12T02:55:24;98184.56;;;2.11;100.00
57114;BME280;42994;51.606;9.988;2023-04-12T02:57:51;98176.19;;;2.16;100.00
57114;BME280;42994;51.606;9.988;2023-04-12T03:00:18;98174.50;;;2.15;100.00
57114;BME280;42994;51.606;9.988;2023-04-12T03:02:48;98173.03;;;2.12;100.00
57114;BME280;42994;51.606;9.988;2023-04-12T03:05:24;98171.50;;;2.09;100.00
57114;BME280;42994;51.606;9.988;2023-04-12T03:07:51;98162.00;;;2.25;100.00
57114;BME280;42994;51.606;9.988;2023-04-12T03:10:24;98157.22;;;2.28;100.00
57114;BME280;42994;51.606;9.988;2023-04-12T03:13:00;98154.22;;;2.31;100.00
57114;BME280;42994;51.606;9.988;2023-04-12T03:15:35;98160.03;;;2.35;100.00
57114;BME280;42994;51.606;9.988;2023-04-12T03:18:02;98149.44;;;2.35;100.00
57114;BME280;42994;51.606;9.988;2023-04-12T03:20:36;98153.78;;;2.36;100.00
57114;BME280;42994;51.606;9.988;2023-04-12T03:23:07;98144.50;;;2.32;100.00
57114;BME280;42994;51.606;9.988;2023-04-12T03:25:37;98153.78;;;2.36;100.00
57114;BME280;42994;51.606;9.988;2023-04-12T03:28:37;98146.84;;;2.43;100.00
57114;BME280;42994;51.606;9.988;2023-04-12T03:31:06;98148.19;;;2.47;100.00
57114;BME280;42994;51.606;9.988;2023-04-12T03:33:39;98145.69;;;2.46;100.00
57114;BME280;42994;51.606;9.988;2023-04-12T03:36:16;98134.81;;;2.65;100.00
57114;BME280;42994;51.606;9.988;2023-04-12T03:38:44;98133.50;;;2.61;100.00
57114;BME280;42994;51.606;9.988;2023-04-12T03:41:11;98125.69;;;2.52;100.00
57114;BME280;42994;51.606;9.988;2023-04-12T03:43:39;98124.56;;;2.62;100.00
57114;BME280;42994;51.606;9.988;2023-04-12T03:46:15;98114.81;;;2.63;100.00
57114;BME280;42994;51.606;9.988;2023-04-12T03:48:43;98113.16;;;2.70;100.00
57114;BME280;42994;51.606;9.988;2023-04-12T03:51:10;98111.84;;;2.74;100.00
57114;BME280;42994;51.606;9.988;2023-04-12T03:53:43;98114.19;;;2.85;100.00
57114;BME280;42994;51.606;9.988;2023-04-12T03:56:13;98112.19;;;2.87;100.00
57114;BME280;42994;51.606;9.988;2023-04-12T03:58:44;98110.53;;;2.86;100.00
57114;BME280;42994;51.606;9.988;2023-04-12T04:01:12;98107.22;;;2.93;100.00
57114;BME280;42994;51.606;9.988;2023-04-12T04:03:41;98106.72;;;2.97;100.00
57114;BME280;42994;51.606;9.988;2023-04-12T04:06:21;98110.03;;;2.99;100.00
57114;BME280;42994;51.606;9.988;2023-04-12T04:08:52;98106.06;;;3.03;100.00
57114;BME280;42994;51.606;9.988;2023-04-12T04:11:20;98097.97;;;3.05;100.00
57114;BME280;42994;51.606;9.988;2023-04-12T04:13:50;98097.31;;;3.11;100.00
57114;BME280;42994;51.606;9.988;2023-04-12T04:16:18;98091.31;;;3.17;100.00
57114;BME280;42994;51.606;9.988;2023-04-12T04:18:46;98090.31;;;3.26;100.00
57114;BME280;42994;51.606;9.988;2023-04-12T04:21:16;98091.00;;;3.29;100.00
57114;BME280;42994;51.606;9.988;2023-04-12T04:23:44;98096.59;;;3.34;100.00
57114;BME280;42994;51.606;9.988;2023-04-12T04:26:14;98089.66;;;3.33;100.00
57114;BME280;42994;51.606;9.988;2023-04-12T04:28:48;98089.00;;;3.31;100.00
57114;BME280;42994;51.606;9.988;2023-04-12T04:31:20;98090.28;;;3.43;100.00
57114;BME280;42994;51.606;9.988;2023-04-12T04:33:51;98080.19;;;3.55;100.00
57114;BME280;42994;51.606;9.988;2023-04-12T04:36:24;98070.25;;;3.49;100.00
57114;BME280;42994;51.606;9.988;2023-04-12T04:38:53;98065.25;;;3.54;100.00
57114;BME280;42994;51.606;9.988;2023-04-12T04:41:41;98059.97;;;3.54;100.00
57114;BME280;42994;51.606;9.988;2023-04-12T04:44:19;98057.97;;;3.56;100.00
57114;BME280;42994;51.606;9.988;2023-04-12T04:46:53;98051.84;;;3.55;100.00
57114;BME280;42994;51.606;9.988;2023-04-12T04:49:21;98044.56;;;3.57;100.00
57114;BME280;42994;51.606;9.988;2023-04-12T04:51:47;98040.59;;;3.61;100.00
57114;BME280;42994;51.606;9.988;2023-04-12T04:54:15;98036.59;;;3.65;100.00
57114;BME280;42994;51.606;9.988;2023-04-12T04:56:44;98033.88;;;3.74;100.00
57114;BME280;42994;51.606;9.988;2023-04-12T04:59:13;98027.28;;;3.70;100.00
57114;BME280;42994;51.606;9.988;2023-04-12T05:01:42;98028.28;;;3.69;100.00
57114;BME280;42994;51.606;9.988;2023-04-12T05:04:08;98031.47;;;3.64;100.00
57114;BME280;42994;51.606;9.988;2023-04-12T05:06:35;98033.25;;;3.72;100.00
57114;BME280;42994;51.606;9.988;2023-04-12T05:09:03;98022.16;;;3.68;100.00
57114;BME280;42994;51.606;9.988;2023-04-12T05:11:34;98021.66;;;3.64;100.00
57114;BME280;42994;51.606;9.988;2023-04-12T05:14:07;98017.19;;;3.65;100.00
57114;BME280;42994;51.606;9.988;2023-04-12T05:16:33;98004.41;;;3.77;100.00
57114;BME280;42994;51.606;9.988;2023-04-12T05:19:01;98011.47;;;3.84;100.00
57114;BME280;42994;51.606;9.988;2023-04-12T05:21:28;98014.63;;;3.88;100.00
57114;BME280;42994;51.606;9.988;2023-04-12T05:23:55;98011.97;;;3.88;100.00
57114;BME280;42994;51.606;9.988;2023-04-12T05:26:22;98001.19;;;3.90;100.00
57114;BME280;42994;51.606;9.988;2023-04-12T05:28:50;97997.66;;;3.97;100.00
57114;BME280;42994;51.606;9.988;2023-04-12T05:31:20;97990.50;;;4.06;100.00
57114;BME280;42994;51.606;9.988;2023-04-12T05:34:07;97989.03;;;4.03;100.00
57114;BME280;42994;51.606;9.988;2023-04-12T05:36:40;97984.47;;;4.12;100.00
57114;BME280;42994;51.606;9.988;2023-04-12T05:39:07;97971.31;;;4.27;100.00
57114;BME280;42994;51.606;9.988;2023-04-12T05:41:34;97960.44;;;4.37;100.00
57114;BME280;42994;51.606;9.988;2023-04-12T05:44:01;97961.56;;;4.42;100.00
57114;BME280;42994;51.606;9.988;2023-04-12T05:46:30;97970.78;;;4.47;100.00
57114;BME280;42994;51.606;9.988;2023-04-12T05:48:57;97959.84;;;4.50;100.00
57114;BME280;42994;51.606;9.988;2023-04-12T05:51:23;97962.06;;;4.61;100.00
57114;BME280;42994;51.606;9.988;2023-04-12T05:53:50;97952.53;;;4.67;100.00
57114;BME280;42994;51.606;9.988;2023-04-12T05:56:17;97947.06;;;4.68;100.00
57114;BME280;42994;51.606;9.988;2023-04-12T05:58:44;97945.69;;;4.72;100.00
57114;BME280;42994;51.606;9.988;2023-04-12T06:01:12;97931.72;;;4.78;100.00
57114;BME280;42994;51.606;9.988;2023-04-12T06:03:42;97937.09;;;5.00;100.00
57114;BME280;42994;51.606;9.988;2023-04-12T06:06:11;97929.06;;;5.08;100.00
57114;BME280;42994;51.606;9.988;2023-04-12T06:08:39;97928.97;;;5.31;100.00
57114;BME280;42994;51.606;9.988;2023-04-12T06:11:06;97911.81;;;5.34;100.00
57114;BME280;42994;51.606;9.988;2023-04-12T06:13:35;97912.09;;;5.39;100.00
57114;BME280;42994;51.606;9.988;2023-04-12T06:16:02;97911.25;;;5.53;100.00
57114;BME280;42994;51.606;9.988;2023-04-12T06:18:29;97905.03;;;5.46;100.00
57114;BME280;42994;51.606;9.988;2023-04-12T06:20:57;97891.88;;;5.59;100.00
57114;BME280;42994;51.606;9.988;2023-04-12T06:23:25;97890.09;;;5.82;100.00
57114;BME280;42994;51.606;9.988;2023-04-12T06:25:52;97882.00;;;5.90;100.00
57114;BME280;42994;51.606;9.988;2023-04-12T06:28:19;97883.38;;;6.01;100.00
57114;BME280;42994;51.606;9.988;2023-04-12T06:30:49;97876.91;;;6.10;100.00
57114;BME280;42994;51.606;9.988;2023-04-12T06:33:15;97872.19;;;6.12;100.00
57114;BME280;42994;51.606;9.988;2023-04-12T06:35:42;97867.06;;;6.10;100.00
57114;BME280;42994;51.606;9.988;2023-04-12T06:38:10;97859.19;;;6.24;100.00
57114;BME280;42994;51.606;9.988;2023-04-12T06:40:36;97851.47;;;6.29;100.00
57114;BME280;42994;51.606;9.988;2023-04-12T06:43:03;97848.34;;;6.25;100.00
57114;BME280;42994;51.606;9.988;2023-04-12T06:45:31;97843.28;;;6.30;100.00
57114;BME280;42994;51.606;9.988;2023-04-12T06:47:58;97835.94;;;6.32;100.00
57114;BME280;42994;51.606;9.988;2023-04-12T06:50:25;97829.06;;;6.45;100.00
57114;BME280;42994;51.606;9.988;2023-04-12T06:52:52;97827.03;;;6.47;100.00
57114;BME280;42994;51.606;9.988;2023-04-12T06:55:20;97821.06;;;6.45;100.00
57114;BME280;42994;51.606;9.988;2023-04-12T06:57:46;97818.88;;;6.55;100.00
57114;BME280;42994;51.606;9.988;2023-04-12T07:00:16;97818.50;;;6.58;100.00
57114;BME280;42994;51.606;9.988;2023-04-12T07:02:43;97816.66;;;6.59;100.00
57114;BME280;42994;51.606;9.988;2023-04-12T07:05:10;97812.59;;;6.63;100.00
57114;BME280;42994;51.606;9.988;2023-04-12T07:07:36;97802.38;;;6.66;100.00
57114;BME280;42994;51.606;9.988;2023-04-12T07:10:04;97803.63;;;6.70;100.00
57114;BME280;42994;51.606;9.988;2023-04-12T07:12:32;97803.00;;;6.68;100.00
57114;BME280;42994;51.606;9.988;2023-04-12T07:14:59;97805.06;;;6.73;100.00
57114;BME280;42994;51.606;9.988;2023-04-12T07:17:26;97796.88;;;6.74;100.00
57114;BME280;42994;51.606;9.988;2023-04-12T07:19:52;97794.44;;;6.80;100.00
57114;BME280;42994;51.606;9.988;2023-04-12T07:22:19;97791.78;;;6.80;100.00
57114;BME280;42994;51.606;9.988;2023-04-12T07:24:47;97794.44;;;6.80;100.00
57114;BME280;42994;51.606;9.988;2023-04-12T07:27:14;97787.50;;;6.85;100.00
57114;BME280;42994;51.606;9.988;2023-04-12T07:29:42;97779.13;;;6.88;100.00
57114;BME280;42994;51.606;9.988;2023-04-12T07:32:09;97779.31;;;6.87;100.00
57114;BME280;42994;51.606;9.988;2023-04-12T07:34:36;97763.56;;;6.92;100.00
57114;BME280;42994;51.606;9.988;2023-04-12T07:37:04;97761.94;;;6.98;100.00
57114;BME280;42994;51.606;9.988;2023-04-12T07:39:31;97748.44;;;6.99;100.00
57114;BME280;42994;51.606;9.988;2023-04-12T07:41:59;97748.25;;;7.07;100.00
57114;BME280;42994;51.606;9.988;2023-04-12T07:44:25;97746.63;;;7.06;100.00
57114;BME280;42994;51.606;9.988;2023-04-12T07:46:53;97742.75;;;7.16;100.00
57114;BME280;42994;51.606;9.988;2023-04-12T07:49:20;97732.50;;;7.26;100.00
57114;BME280;42994;51.606;9.988;2023-04-12T07:51:47;97738.25;;;7.29;100.00
57114;BME280;42994;51.606;9.988;2023-04-12T07:54:13;97733.34;;;7.33;100.00
57114;BME280;42994;51.606;9.988;2023-04-12T07:56:40;97732.75;;;7.38;100.00
57114;BME280;42994;51.606;9.988;2023-04-12T07:59:06;97726.41;;;7.45;100.00
57114;BME280;42994;51.606;9.988;2023-04-12T08:01:33;97719.22;;;7.53;100.00
57114;BME280;42994;51.606;9.988;2023-04-12T08:04:02;97718.81;;;7.56;100.00
57114;BME280;42994;51.606;9.988;2023-04-12T08:06:28;97726.59;;;7.50;100.00
57114;BME280;42994;51.606;9.988;2023-04-12T08:08:55;97704.25;;;7.58;100.00
57114;BME280;42994;51.606;9.988;2023-04-12T08:11:22;97715.72;;;7.59;100.00
57114;BME280;42994;51.606;9.988;2023-04-12T08:13:48;97709.78;;;7.57;100.00
57114;BME280;42994;51.606;9.988;2023-04-12T08:16:15;97710.59;;;7.64;100.00
57114;BME280;42994;51.606;9.988;2023-04-12T08:18:42;97702.59;;;7.64;100.00
57114;BME280;42994;51.606;9.988;2023-04-12T08:21:10;97704.25;;;7.65;100.00
57114;BME280;42994;51.606;9.988;2023-04-12T08:23:36;97700.16;;;7.69;100.00
57114;BME280;42994;51.606;9.988;2023-04-12T08:26:03;97697.28;;;7.64;100.00
57114;BME280;42994;51.606;9.988;2023-04-12T08:28:30;97695.63;;;7.76;100.00
57114;BME280;42994;51.606;9.988;2023-04-12T08:30:57;97696.03;;;7.80;100.00
57114;BME280;42994;51.606;9.988;2023-04-12T08:33:24;97694.59;;;7.77;100.00
57114;BME280;42994;51.606;9.988;2023-04-12T08:35:51;97694.81;;;7.69;100.00
57114;BME280;42994;51.606;9.988;2023-04-12T08:38:19;97697.69;;;7.74;100.00
57114;BME280;42994;51.606;9.988;2023-04-12T08:40:46;97687.22;;;7.73;100.00
57114;BME280;42994;51.606;9.988;2023-04-12T08:43:14;97692.56;;;7.73;100.00
57114;BME280;42994;51.606;9.988;2023-04-12T08:45:43;97686.19;;;7.54;100.00
57114;BME280;42994;51.606;9.988;2023-04-12T08:48:10;97687.44;;;7.58;100.00
57114;BME280;42994;51.606;9.988;2023-04-12T08:50:37;97674.09;;;7.58;100.00
57114;BME280;42994;51.606;9.988;2023-04-12T08:53:04;97674.28;;;7.43;100.00
57114;BME280;42994;51.606;9.988;2023-04-12T08:55:32;97664.66;;;7.42;100.00
57114;BME280;42994;51.606;9.988;2023-04-12T08:57:59;97658.28;;;7.43;100.00
57114;BME280;42994;51.606;9.988;2023-04-12T09:00:28;97664.84;;;7.27;100.00
57114;BME280;42994;51.606;9.988;2023-04-12T09:02:55;97648.06;;;7.40;100.00
57114;BME280;42994;51.606;9.988;2023-04-12T09:05:27;97646.81;;;7.36;100.00
57114;BME280;42994;51.606;9.988;2023-04-12T09:07:54;97638.19;;;7.40;100.00
57114;BME280;42994;51.606;9.988;2023-04-12T09:10:32;97627.75;;;7.52;100.00
57114;BME280;42994;51.606;9.988;2023-04-12T09:12:59;97616.03;;;7.26;100.00
57114;BME280;42994;51.606;9.988;2023-04-12T09:15:26;97622.00;;;7.35;100.00
57114;BME280;42994;51.606;9.988;2023-04-12T09:18:04;97603.13;;;7.43;100.00
57114;BME280;42994;51.606;9.988;2023-04-12T09:20:31;97601.09;;;7.52;100.00
57114;BME280;42994;51.606;9.988;2023-04-12T09:22:58;97596.56;;;7.26;100.00
57114;BME280;42994;51.606;9.988;2023-04-12T09:25:39;97589.78;;;7.30;100.00
57114;BME280;42994;51.606;9.988;2023-04-12T09:28:22;97582.66;;;7.30;100.00
57114;BME280;42994;51.606;9.988;2023-04-12T09:30:50;97565.81;;;7.30;100.00
57114;BME280;42994;51.606;9.988;2023-04-12T09:33:18;97565.19;;;7.28;100.00
57114;BME280;42994;51.606;9.988;2023-04-12T09:35:45;97556.59;;;7.26;100.00
57114;BME280;42994;51.606;9.988;2023-04-12T09:38:13;97553.72;;;7.34;100.00
57114;BME280;42994;51.606;9.988;2023-04-12T09:40:41;97551.88;;;7.41;100.00
57114;BME280;42994;51.606;9.988;2023-04-12T09:43:07;97537.75;;;7.34;100.00
57114;BME280;42994;51.606;9.988;2023-04-12T09:45:35;97529.72;;;7.41;100.00
57114;BME280;42994;51.606;9.988;2023-04-12T09:48:04;97528.28;;;7.38;100.00
57114;BME280;42994;51.606;9.988;2023-04-12T09:50:32;97528.69;;;7.42;100.00
57114;BME280;42994;51.606;9.988;2023-04-12T09:53:00;97523.38;;;7.48;100.00
57114;BME280;42994;51.606;9.988;2023-04-12T09:55:28;97515.97;;;7.44;100.00
57114;BME280;42994;51.606;9.988;2023-04-12T09:58:00;97512.69;;;7.48;100.00
57114;BME280;42994;51.606;9.988;2023-04-12T10:00:29;97511.03;;;7.47;100.00
57114;BME280;42994;51.606;9.988;2023-04-12T10:02:58;97502.00;;;7.55;100.00
57114;BME280;42994;51.606;9.988;2023-04-12T10:05:25;97491.94;;;7.57;100.00
57114;BME280;42994;51.606;9.988;2023-04-12T10:07:52;97498.47;;;7.68;100.00
57114;BME280;42994;51.606;9.988;2023-04-12T10:10:19;97491.91;;;7.70;100.00
57114;BME280;42994;51.606;9.988;2023-04-12T10:12:47;97486.78;;;7.62;100.00
57114;BME280;42994;51.606;9.988;2023-04-12T10:15:16;97486.00;;;7.55;100.00
57114;BME280;42994;51.606;9.988;2023-04-12T10:17:48;97479.44;;;7.58;100.00
57114;BME280;42994;51.606;9.988;2023-04-12T10:20:17;97471.00;;;7.61;100.00
57114;BME280;42994;51.606;9.988;2023-04-12T10:22:46;97469.38;;;7.60;100.00
57114;BME280;42994;51.606;9.988;2023-04-12T10:25:14;97453.59;;;7.51;100.00
57114;BME280;42994;51.606;9.988;2023-04-12T10:27:41;97453.59;;;7.51;100.00
57114;BME280;42994;51.606;9.988;2023-04-12T10:30:19;97457.06;;;7.59;100.00
57114;BME280;42994;51.606;9.988;2023-04-12T10:32:47;97451.94;;;7.64;100.00
57114;BME280;42994;51.606;9.988;2023-04-12T10:35:15;97439.59;;;7.63;100.00
57114;BME280;42994;51.606;9.988;2023-04-12T10:37:57;97423.84;;;7.61;100.00
57114;BME280;42994;51.606;9.988;2023-04-12T10:40:24;97435.38;;;7.48;100.00
57114;BME280;42994;51.606;9.988;2023-04-12T10:43:22;97432.44;;;7.63;100.00
57114;BME280;42994;51.606;9.988;2023-04-12T10:45:52;97425.06;;;7.65;100.00
57114;BME280;42994;51.606;9.988;2023-04-12T10:48:36;97422.38;;;7.65;100.00
57114;BME280;42994;51.606;9.988;2023-04-12T10:51:15;97432.59;;;7.75;100.00
57114;BME280;42994;51.606;9.988;2023-04-12T10:53:47;97420.13;;;7.69;100.00
57114;BME280;42994;51.606;9.988;2023-04-12T10:56:37;97408.78;;;7.74;100.00
57114;BME280;42994;51.606;9.988;2023-04-12T10:59:05;97413.63;;;7.90;100.00
57114;BME280;42994;51.606;9.988;2023-04-12T11:02:09;97408.69;;;7.94;100.00
57114;BME280;42994;51.606;9.988;2023-04-12T11:04:36;97405.00;;;7.95;100.00
57114;BME280;42994;51.606;9.988;2023-04-12T11:07:08;97397.13;;;8.06;100.00
57114;BME280;42994;51.606;9.988;2023-04-12T11:09:56;97407.88;;;7.93;100.00
57114;BME280;42994;51.606;9.988;2023-04-12T11:12:26;97390.97;;;8.06;100.00
57114;BME280;42994;51.606;9.988;2023-04-12T11:14:59;97389.19;;;7.93;100.00
57114;BME280;42994;51.606;9.988;2023-04-12T11:17:32;97397.94;;;8.07;100.00
57114;BME280;42994;51.606;9.988;2023-04-12T11:20:00;97406.56;;;8.09;100.00
57114;BME280;42994;51.606;9.988;2023-04-12T11:22:29;97405.28;;;8.12;100.00
57114;BME280;42994;51.606;9.988;2023-04-12T11:24:58;97392.63;;;8.07;100.00
57114;BME280;42994;51.606;9.988;2023-04-12T11:27:26;97385.06;;;7.97;100.00
57114;BME280;42994;51.606;9.988;2023-04-12T11:29:54;97377.06;;;7.97;100.00
57114;BME280;42994;51.606;9.988;2023-04-12T11:32:22;97375.38;;;8.03;100.00
57114;BME280;42994;51.606;9.988;2023-04-12T11:34:53;97361.78;;;8.11;100.00
57114;BME280;42994;51.606;9.988;2023-04-12T11:37:21;97353.25;;;7.96;100.00
57114;BME280;42994;51.606;9.988;2023-04-12T11:39:50;97370.59;;;8.12;100.00
57114;BME280;42994;51.606;9.988;2023-04-12T11:42:19;97369.59;;;8.13;100.00
57114;BME280;42994;51.606;9.988;2023-04-12T11:44:46;97370.75;;;8.23;100.00
57114;BME280;42994;51.606;9.988;2023-04-12T11:47:14;97363.16;;;8.20;100.00
57114;BME280;42994;51.606;9.988;2023-04-12T11:49:43;97359.19;;;8.30;100.00
57114;BME280;42994;51.606;9.988;2023-04-12T11:52:11;97369.91;;;8.23;100.00
57114;BME280;42994;51.606;9.988;2023-04-12T11:54:41;97369.13;;;8.16;100.00
57114;BME280;42994;51.606;9.988;2023-04-12T11:57:10;97369.69;;;8.24;100.00
57114;BME280;42994;51.606;9.988;2023-04-12T11:59:37;97365.16;;;8.25;100.00
57114;BME280;42994;51.606;9.988;2023-04-12T12:02:07;97355.09;;;8.27;100.00
57114;BME280;42994;51.606;9.988;2023-04-12T12:04:34;97355.31;;;8.25;100.00
57114;BME280;42994;51.606;9.988;2023-04-12T12:07:01;97348.94;;;8.26;100.00
57114;BME280;42994;51.606;9.988;2023-04-12T12:09:29;97350.91;;;8.38;100.00
57114;BME280;42994;51.606;9.988;2023-04-12T12:11:57;97346.97;;;8.47;100.00
57114;BME280;42994;51.606;9.988;2023-04-12T12:14:24;97339.78;;;8.41;100.00
57114;BME280;42994;51.606;9.988;2023-04-12T12:16:53;97337.31;;;8.46;100.00
57114;BME280;42994;51.606;9.988;2023-04-12T12:19:31;97335.78;;;8.57;100.00
57114;BME280;42994;51.606;9.988;2023-04-12T12:22:09;97324.97;;;8.45;100.00
57114;BME280;42994;51.606;9.988;2023-04-12T12:24:38;97328.50;;;8.64;100.00
57114;BME280;42994;51.606;9.988;2023-04-12T12:27:04;97323.22;;;8.57;100.00
57114;BME280;42994;51.606;9.988;2023-04-12T12:29:34;97316.69;;;8.53;100.00
57114;BME280;42994;51.606;9.988;2023-04-12T12:32:02;97311.56;;;8.52;100.00
57114;BME280;42994;51.606;9.988;2023-04-12T12:34:31;97306.44;;;8.50;100.00
57114;BME280;42994;51.606;9.988;2023-04-12T12:36:59;97298.91;;;8.47;100.00
57114;BME280;42994;51.606;9.988;2023-04-12T12:39:26;97301.00;;;8.63;100.00
57114;BME280;42994;51.606;9.988;2023-04-12T12:41:54;97291.03;;;8.52;100.00
57114;BME280;42994;51.606;9.988;2023-04-12T12:44:21;97290.16;;;8.58;100.00
57114;BME280;42994;51.606;9.988;2023-04-12T12:46:48;97284.50;;;8.66;100.00
57114;BME280;42994;51.606;9.988;2023-04-12T12:49:15;97281.56;;;8.75;100.00
57114;BME280;42994;51.606;9.988;2023-04-12T12:51:42;97281.84;;;8.85;100.00
57114;BME280;42994;51.606;9.988;2023-04-12T12:54:09;97273.38;;;8.70;100.00
57114;BME280;42994;51.606;9.988;2023-04-12T12:56:35;97273.81;;;8.85;100.00
57114;BME280;42994;51.606;9.988;2023-04-12T12:59:03;97271.16;;;8.85;100.00
57114;BME280;42994;51.606;9.988;2023-04-12T13:01:31;97276.88;;;8.89;100.00
57114;BME280;42994;51.606;9.988;2023-04-12T13:03:57;97274.34;;;8.94;100.00
57114;BME280;42994;51.606;9.988;2023-04-12T13:06:24;97272.06;;;8.79;100.00
57114;BME280;42994;51.606;9.988;2023-04-12T13:08:51;97277.00;;;8.94;100.00
57114;BME280;42994;51.606;9.988;2023-04-12T13:11:19;97271.00;;;8.98;100.00